WEATHER DATA

YESTERDAY
Time Temp. Dewp. Hum. Wind dir Wind speed Wind gust Bar. 1h Prec. 24h Prec.
00:02 10.6 9.7 94 330 0.3 0.6 1019.4 0.0000 0.0000
00:13 10.6 9.7 94 315 0.3 0.6 1019.5 0.0000 0.0000
00:23 10.5 9.4 93 322 0.3 0.6 1019.4 0.0000 0.0000
00:33 10.4 9.3 93 325 0.3 0.6 1019.4 0.0000 0.0000
00:42 10.2 9.3 94 335 0.3 0.6 1019.4 0.0000 0.0000
00:53 10.1 9.2 94 336 0.3 0.8 1019.3 0.0000 0.0000
01:03 10.1 9.3 95 315 0.3 0.6 1019.3 0.0000 0.0000
01:13 10 9.1 94 333 0.3 0.6 1019.5 0.0000 0.0000
01:23 9.9 9 94 315 0.3 0.6 1019.3 0.0000 0.0000
01:34 9.7 8.9 95 309 0.3 0.6 1019.4 0.0000 0.0000
01:43 9.6 8.8 95 315 0.3 0.6 1019.2 0.0000 0.0000
01:53 9.4 8.6 95 315 0.3 0.6 1019.2 0.0000 0.0000
02:04 9.3 8.5 95 327 0.3 0.6 1019.1 0.0000 0.0000
02:14 9.2 8.6 96 322 0.3 0.6 1019.1 0.0000 0.0000
02:24 9.2 8.6 96 0 0.6 1019.1 0.0000 0.0000
02:34 9.3 8.8 97 338 0.3 0.6 1018.9 0.0000 0.0000
02:44 9.3 8.8 97 354 0.3 0.6 1019 0.0000 0.0000
02:54 9.3 8.8 97 354 0.3 0.6 1019 0.0000 0.0000
03:04 9.3 8.7 96 5 0.3 0.6 1019 0.0000 0.0000
03:15 9.2 8.6 96 341 0.3 0.6 1019 0.0000 0.0000
03:25 9.2 8.6 96 350 0.3 0.6 1019 0.0000 0.0000
03:35 9.3 8.8 97 315 0.3 0.6 1018.8 0.0000 0.0000
03:44 9.3 8.8 97 354 0.3 0.6 1018.9 0.0000 0.0000
03:55 9.3 8.8 97 330 0.3 0.6 1018.9 0.0000 0.0000
04:05 9.3 8.8 97 0 0.6 1018.9 0.0000 0.0000
04:15 9.3 8.8 97 350 0.3 0.6 1018.9 0.0000 0.0000
04:25 9.3 8.7 96 0 0.3 1018.7 0.0000 0.0000
04:36 9.2 8.6 96 335 0.3 0.6 1018.7 0.0000 0.0000
04:55 9 8.4 96 315 0.3 0.6 1018.6 0.0000 0.0000
05:06 8.9 8.3 96 326 0.3 0.6 1018.7 0.0000 0.0000
05:16 8.8 8.4 97 321 0.3 0.3 1018.7 0.0000 0.0000
05:26 8.8 8.4 97 351 0.3 0.6 1018.7 0.0000 0.0000
05:36 8.6 8.2 97 329 0.3 0.6 1018.7 0.0000 0.0000
05:46 8.6 8.2 97 321 0.3 0.6 1018.6 0.0000 0.0000
05:56 8.6 8.2 97 24 0.3 0.6 1018.6 0.0000 0.0000
06:06 8.6 8.2 97 18 0.3 0.6 1018.6 0.0000 0.0000
06:17 8.5 8.1 97 330 0.3 0.6 1018.4 0.0000 0.0000
06:27 8.5 8.2 98 0 0.3 0.6 1018.5 0.0000 0.0000
06:36 8.5 8.2 98 355 0.3 0.6 1018.6 0.0000 0.0000
06:46 8.4 8.1 98 335 0.3 0.6 1018.6 0.0000 0.0000
06:57 8.4 8.1 98 326 0.3 0.6 1018.7 0.0000 0.0000
07:07 8.4 8.1 98 338 0.3 0.6 1018.7 0.0000 0.0000
07:17 8.4 8.1 98 333 0.3 0.6 1018.9 0.0000 0.0000
07:27 8.4 8.1 98 320 0.3 0.6 1018.9 0.0000 0.0000
07:37 8.4 8.1 98 338 0.3 0.6 1018.9 0.0000 0.0000
07:47 8.5 8.4 99 335 0.3 0.6 1019.1 0.0000 0.0000
07:57 8.7 8.6 99 4 0.3 0.6 1019 0.0000 0.0000
08:08 8.9 8.8 99 344 0.3 0.6 1019 0.0000 0.0000
08:18 9.1 9 99 335 0.3 0.6 1019.1 0.0000 0.0000
08:28 9.4 9.4 100 341 0.3 0.6 1019.2 0.0000 0.0000
08:38 9.7 9.6 99 315 0.3 0.6 1019.1 0.0000 0.0000
08:48 10 9.9 99 315 0.3 0.8 1019.2 0.0000 0.0000
08:58 10.4 10.2 99 322 0.3 0.6 1019.1 0.0000 0.0000
09:08 10.7 10.4 98 305 0.3 0.8 1019.3 0.0000 0.0000
09:19 10.9 10.4 97 310 0.3 0.6 1019.3 0.0000 0.0000
09:28 11.1 10.5 96 270 0.3 0.6 1019.2 0.0000 0.0000
09:38 11.3 10.5 95 270 0.6 0.8 1019.3 0.0000 0.0000
09:48 11.5 10.6 94 270 0.3 0.6 1019.4 0.0000 0.0000
09:59 11.6 10.5 93 270 0.3 0.6 1019.4 0.0000 0.0000
10:09 11.8 10.5 92 270 0.3 0.6 1019.3 0.0000 0.0000
10:19 12.1 10.7 91 270 0.3 0.6 1019.5 0.0000 0.0000
10:29 12.4 10.8 90 270 0.3 0.6 1019.5 0.0000 0.0000
10:39 12.9 11 88 270 0.3 0.8 1019.6 0.0000 0.0000
10:49 13.6 11 84 270 0.6 1.4 1019.5 0.0000 0.0000
10:59 14 10.8 81 270 0.6 1.4 1019.4 0.0000 0.0000
11:10 14.8 11 78 270 0.6 1.7 1019.4 0.0000 0.0000
11:20 15.3 10.5 73 270 0.6 1.9 1019.5 0.0000 0.0000
11:29 15.6 10.6 72 270 0.6 1.9 1019.6 0.0000 0.0000
11:40 16.2 10.7 70 270 0.3 1.7 1019.5 0.0000 0.0000
11:50 16.5 10.4 67 270 0.3 1.9 1019.4 0.0000 0.0000
12:00 16.8 10 64 239 0.3 1.4 1019.4 0.0000 0.0000
12:10 16.8 10 64 270 0.6 1.9 1019.3 0.0000 0.0000
12:21 17.2 9.9 62 0 0.3 1.4 1019.2 0.0000 0.0000
12:30 17.4 9.3 59 315 0.6 1.7 1019.2 0.0000 0.0000
12:50 17.8 9.4 58 315 0.3 1.7 1019.1 0.0000 0.0000
13:05 17.8 9.2 57 270 0.6 1.4 1019.2 0.0000 0.0000
13:15 17.7 8.8 56 270 0.8 2.2 1019.1 0.0000 0.0000
13:25 18 9.4 57 135 0.3 2.2 1019 0.0000 0.0000
13:35 18.2 9 55 270 0.3 1.4 1019.1 0.0000 0.0000
13:45 18.4 8.9 54 288 0.6 1.9 1018.9 0.0000 0.0000
13:55 18.2 8.5 53 270 0.8 2.2 1019 0.0000 0.0000
14:06 17.4 8.5 56 270 0.3 0.6 1019.1 0.0000 0.0000
14:16 17.3 8.7 57 270 0.3 0.8 1019.2 0.0000 0.0000
14:25 16.8 8.8 59 270 0.3 0.8 1019.1 0.0000 0.0000
14:36 16.5 9 61 270 0.3 0.8 1019 0.0000 0.0000
14:46 16.2 9.2 63 303 0.3 1.4 1019.2 0.0000 0.0000
14:56 16 9.4 65 321 0.3 0.6 1019.1 0.0000 0.0000
15:06 15.9 9.3 65 324 0.3 0.6 1018.9 0.0000 0.0000
15:17 15.9 9.6 66 326 0.3 0.6 1019 0.0000 0.0000
15:26 15.9 9.8 67 270 0.3 0.6 1018.9 0.0000 0.0000
15:36 15.9 9.6 66 270 0.3 0.6 1019 0.0000 0.0000
15:46 15.7 9.6 67 315 0.3 0.8 1018.8 0.0000 0.0000
15:57 15.4 9.3 67 329 0.3 0.8 1018.8 0.0000 0.0000
16:07 15.2 9.6 69 0 0.3 1019 0.0000 0.0000
16:16 14.9 9.3 69 307 0.3 0.6 1019 0.0000 0.0000
16:27 14.7 9.3 70 302 0.3 0.3 1018.8 0.0000 0.0000
16:37 14.5 9.3 71 270 0.3 0.6 1018.9 0.0000 0.0000
16:47 14.4 9.4 72 315 0.3 0.6 1018.8 0.0000 0.0000
16:57 14.4 9.2 71 270 0.3 0.6 1018.7 0.0000 0.0000
17:08 14.3 9.3 72 0 0.6 1018.8 0.0000 0.0000
17:18 14.1 9.3 73 0 0.6 1018.6 0.0000 0.0000
17:28 14 9.2 73 323 0.3 0.6 1018.7 0.0000 0.0000
17:36 13.8 9.3 74 315 0.3 0.6 1018.6 0.0000 0.0000
17:45 13.7 9.2 74 308 0.3 0.6 1018.7 0.0000 0.0000
17:55 13.6 9.3 75 315 0.3 0.6 1018.8 0.0000 0.0000
18:06 13.4 9.1 75 270 0.3 0.6 1018.8 0.0000 0.0000
18:16 13.2 9.1 76 307 0.3 0.6 1018.9 0.0000 0.0000
18:26 13 8.9 76 0 0.3 1018.8 0.0000 0.0000
18:37 12.8 8.9 77 0 0.6 1018.8 0.0000 0.0000
18:46 12.6 8.9 78 270 0.3 0.6 1018.8 0.0000 0.0000
18:56 12.4 8.9 79 270 0.3 0.6 1018.9 0.0000 0.0000
19:06 12.2 8.9 80 329 0.3 0.6 1018.9 0.0000 0.0000
19:17 12 8.7 80 0 0.6 1018.9 0.0000 0.0000
19:27 11.9 8.7 81 53 0.3 0.6 1018.9 0.0000 0.0000
19:36 11.8 8.8 82 0 0.3 1018.9 0.0000 0.0000
19:47 11.7 8.9 83 0 0.3 1018.9 0.0000 0.0000
19:57 11.6 8.8 83 0 0.3 1018.9 0.0000 0.0000
20:07 11.5 8.7 83 341 0.3 0.6 1018.9 0.0000 0.0000
20:17 11.3 8.7 84 324 0.3 0.6 1019.1 0.0000 0.0000
20:28 11.2 8.6 84 270 0.3 0.6 1019 0.0000 0.0000
20:37 11.2 8.8 85 315 0.3 0.6 1019 0.0000 0.0000
20:47 11.1 8.7 85 308 0.3 0.6 1019.1 0.0000 0.0000
20:57 11 8.6 85 321 0.3 0.6 1019.2 0.0000 0.0000
21:08 10.8 8.6 86 0 0.3 1019.2 0.0000 0.0000
21:18 10.7 8.6 87 345 0.3 0.6 1019.2 0.0000 0.0000
21:28 10.7 8.6 87 0 0.6 1019.2 0.0000 0.0000
21:38 10.6 8.7 88 329 0.3 0.6 1019 0.0000 0.0000
21:48 10.6 8.7 88 329 0.3 0.6 1019.1 0.0000 0.0000
21:58 10.5 8.6 88 0 0.6 1019.2 0.0000 0.0000
22:08 10.4 8.5 88 0 0.3 1019.1 0.0000 0.0000
22:19 10.4 8.5 88 0 0.3 1019.1 0.0000 0.0000
22:28 10.3 8.6 89 0 0.3 1019.2 0.0000 0.0000
22:38 10.2 8.5 89 322 0.3 0.6 1019.3 0.0000 0.0000
22:49 10.2 8.5 89 322 0.3 0.6 1019.3 0.0000 0.0000
22:59 10.1 8.4 89 335 0.3 0.6 1019.3 0.0000 0.0000
23:09 10 8.3 89 315 0.3 0.6 1019.2 0.0000 0.0000
23:19 9.8 8.2 90 315 0.3 0.6 1019.2 0.0000 0.0000
23:29 9.7 8.1 90 333 0.3 0.6 1019.1 0.0000 0.0000
23:39 9.6 8 90 338 0.3 0.6 1019.3 0.0000 0.0000
23:49 9.6 8.2 91 0 0.3 0.6 1019.2 0.0000 0.0000

DAY STATISTIC

2022-09-24
TEMPERATURE
AVERAGE
11.9
HIGH
18.4
13:45
LOW
8.4
06:46
PRESSURE
AVERAGE
1019.0
HIGH
1019.6
10:39
LOW
1018.4
06:17
DEWPOINT
AVERAGE
9.1
HIGH
11.0
10:39
LOW
8.0
23:39
HUMIDITY
AVERAGE
84
HIGH
100
08:28
LOW
53
13:55
WIND SPEED
AVERAGE
0.3
HIGH
0.8
13:15
WIND GUST
AVERAGE
0.7
HIGH
2.2
13:15
WIND DIRECTION
PREVAILING
NW
45%
N
15.7
NE
1.4
E
0.0
SE
0.7
S
0.0
SW
0.7
W
23.6
NW
45.0
PRECIPITATION
RAIN HOUR
0.0
RAIN DAY
0.0
TEMPERATURE (°C)
LOW
8.4
HIGH
18.4
AVERAGE
11.9
PRESSURE (hpa)
LOW
1018.4
HIGH
1019.6
AVERAGE
1019.0
DEVICE